Montréal, Quebec

14:57 EST le 20 janvier 2017 (GMT -0500)
St-Laurent Near Pierre Elliot Trudeau Airport | | Change Station

Alt. 20 ft 45.50 °N, 73.74 °W | Updated 7 seconds ago

Couvert
Couvert
36.0 ° F
Paraît 36 ° F
N
2.0
Vent Variable Vent de ESE
Gusts 4.0 mph

Aujourd'hui
Haut(e) -- | Bas -- ° F
--% Risque de précip.
Hier
Haut(e) -- | Bas -- ° F
Precip. -- pouce
Pression 29.90 pouce
Visibilité 30.0 Miles terrestres
Nuages Couvert 2000 ft
Refroidissement éolien 36 ° F
Point de rosée 27 ° F
Humidité 70%
Précipitations 0.00 pouce
Profondeur de la couche neigeuse Non disponible.
7:27 AM 4:45 PM
Dernier quartier, 42% visible
METAR CYUL 201900Z 11010KT 30SM OVC020 02/M02 A2989 RMK SC8 SLP124
Pression 29.90 pouce
Visibilité 30.0 Miles terrestres
Nuages Couvert 2000 ft
Refroidissement éolien 36 ° F
Point de rosée 27 ° F
Humidité 70%
Précipitations 0.00 pouce
Profondeur de la couche neigeuse Non disponible.
7:27 AM 4:45 PM
Dernier quartier, 42% visible
METAR CYUL 201900Z 11010KT 30SM OVC020 02/M02 A2989 RMK SC8 SLP124

Get Your Daily Forecast Email!

Thanks for signing up!

Be on the lookout for a verification email in your inbox.

You'll start receiving the daily forecast at 8 AM.

×

10-Day Weather Forecast

Almanac

Astronomie

Jan. 20, 2017 Lever Coucher
Temps réel
Crépuscule civil
Crépuscule nautique
Crépuscule astronomique
Lune
Durée de lumière visible
Longueur du jour
Tomorrow will be .
, % of the Moon is Illuminated

Extrêmes aujourd'hui

Country Highs Country Lows

Community

WunderPhotos

Upload Photos

1,962,540 Photos téléchargées !

WunderBlog® & News

Nearby

Qualité de l'air

  Qualité de l'air Indice de la qualité de l'air Polluant
Not available.

Épaisseur de neige

Station Depth Altitude

Activité sismique

Ville Distance Mag. Time & Date
Minimum magnitude displayed is 2.5.

Températures des eaux côtières

Lieu Température

Stations

Stations météo à proximité

Emplacement de la station Température Refroidissement éolien Point de rosée Humidité Vent Precip. Alt. Mise à jour Type
                   

Watches & Warnings

There are currently no watches in effect.